createdAt,value
2018-04-18T06:27:54.489Z,65.67
2018-04-18T06:30:20.198Z,57.37
2018-04-18T06:32:45.795Z,54.71
2018-04-18T06:35:11.579Z,55.61
2018-04-18T06:37:37.146Z,55.70
2018-04-18T06:40:02.715Z,55.34
2018-04-18T06:42:28.474Z,54.80
2018-04-18T06:44:54.029Z,54.55
2018-04-18T06:47:19.762Z,53.76
2018-04-18T06:49:45.316Z,52.83
2018-04-18T06:52:11.073Z,53.15
2018-04-18T06:54:36.621Z,52.59
2018-04-18T06:57:02.331Z,52.33
2018-04-18T06:59:27.869Z,52.38
2018-04-18T07:01:53.593Z,51.68
2018-04-18T07:04:19.152Z,51.61
2018-04-18T07:06:44.981Z,50.84
2018-04-18T07:09:10.527Z,50.55
2018-04-18T07:11:36.354Z,49.85
2018-04-18T07:14:01.963Z,50.24
2018-04-18T07:16:27.647Z,50.13
2018-04-18T07:18:53.195Z,49.84
2018-04-18T07:21:19.138Z,49.04
2018-04-18T07:23:44.675Z,48.43
2018-04-18T07:26:10.271Z,47.61
2018-04-18T07:28:36.009Z,48.75
2018-04-18T07:31:01.558Z,48.37
2018-04-18T07:33:27.337Z,48.85
2018-04-18T07:35:52.898Z,47.75
2018-04-18T07:38:18.655Z,48.41
2018-04-18T07:40:44.238Z,48.49
2018-04-18T07:43:10.054Z,48.09
2018-04-18T07:45:35.634Z,47.70
2018-04-18T07:48:01.491Z,48.03
2018-04-18T07:50:27.056Z,47.36
2018-04-18T07:52:52.761Z,47.46
2018-04-18T07:55:18.326Z,47.13
2018-04-18T07:57:44.009Z,46.84
2018-04-18T08:00:09.547Z,46.94
2018-04-18T08:02:35.376Z,47.01
2018-04-18T08:05:01.019Z,47.01
2018-04-18T08:07:26.830Z,45.33
2018-04-18T08:09:52.405Z,45.36
2018-04-18T08:12:18.124Z,45.05
2018-04-18T08:14:43.678Z,44.88
2018-04-18T08:17:09.432Z,45.82
2018-04-18T08:19:34.989Z,45.35
2018-04-18T08:22:00.588Z,45.41
2018-04-18T08:24:26.394Z,45.31
2018-04-18T08:26:51.932Z,45.36
2018-04-18T08:29:17.675Z,44.96
2018-04-18T08:31:43.215Z,45.12
2018-04-18T08:34:09.020Z,44.56
2018-04-18T08:36:34.603Z,44.13
2018-04-18T08:39:00.370Z,44.65
2018-04-18T08:41:25.937Z,44.17
2018-04-18T08:43:51.730Z,44.41
2018-04-18T08:46:17.285Z,43.73
2018-04-18T08:48:43.133Z,43.40
2018-04-18T08:51:08.773Z,43.03
2018-04-18T08:53:34.585Z,42.82
2018-04-18T08:56:00.139Z,42.09
2018-04-18T08:58:25.894Z,42.50
2018-04-18T09:00:51.515Z,41.80
2018-04-18T09:03:17.250Z,42.01
2018-04-18T09:05:42.788Z,42.21
2018-04-18T09:08:08.514Z,42.16
2018-04-18T09:10:34.083Z,41.60
2018-04-18T09:12:59.848Z,41.63
2018-04-18T09:15:25.422Z,41.74
2018-04-18T09:17:51.006Z,40.72
2018-04-18T09:20:16.763Z,40.18
2018-04-18T09:22:42.305Z,39.53
2018-04-18T09:25:08.146Z,39.00
2018-04-18T09:27:33.697Z,38.49
2018-04-18T09:29:59.386Z,38.76
2018-04-18T09:32:24.943Z,37.53
2018-04-18T09:34:50.700Z,37.53
2018-04-18T09:37:16.267Z,37.73
2018-04-18T09:39:42.069Z,37.37
2018-04-18T09:42:07.639Z,36.08
2018-04-18T09:44:33.300Z,35.78
2018-04-18T09:46:58.877Z,36.02
2018-04-18T09:49:24.811Z,36.28
2018-04-18T09:51:50.378Z,34.79
2018-04-18T09:54:16.120Z,34.94
2018-04-18T09:56:41.722Z,35.07
2018-04-18T09:59:07.464Z,34.71
2018-04-18T10:01:42.184Z,34.35
2018-04-18T10:04:10.839Z,33.91
2018-04-18T10:06:36.394Z,31.78
2018-04-18T10:09:02.162Z,30.37
2018-04-18T10:11:27.771Z,28.62
2018-04-18T10:13:53.469Z,27.76
2018-04-18T10:16:19.109Z,28.41
2018-04-18T10:18:44.865Z,27.65
2018-04-18T10:21:10.411Z,27.36
2018-04-18T10:23:35.961Z,26.58
2018-04-18T10:26:01.895Z,27.44
2018-04-18T10:28:27.423Z,27.25
2018-04-18T10:30:53.192Z,26.09
2018-04-18T10:33:18.821Z,26.43
2018-04-18T10:35:44.512Z,26.98
2018-04-18T10:38:10.156Z,26.52
2018-04-18T10:40:35.908Z,26.68
2018-04-18T10:43:01.452Z,26.27
2018-04-18T10:45:27.192Z,26.65
2018-04-18T10:47:52.735Z,26.16
2018-04-18T10:50:18.518Z,27.32
2018-04-18T10:52:44.057Z,27.06
2018-04-18T10:55:09.768Z,26.89
2018-04-18T10:57:35.350Z,26.55
2018-04-18T11:00:00.918Z,27.63
2018-04-18T11:02:26.664Z,27.08
2018-04-18T11:04:52.233Z,27.07
2018-04-18T11:07:17.950Z,26.69
2018-04-18T11:09:43.482Z,25.55
2018-04-18T11:12:09.182Z,25.90
2018-04-18T11:14:34.738Z,25.44
2018-04-18T11:17:00.444Z,24.60
2018-04-18T11:19:26.046Z,24.88
2018-04-18T11:21:51.878Z,24.95
2018-04-18T11:24:17.491Z,24.08
2018-04-18T11:26:43.211Z,23.54
2018-04-18T11:29:08.760Z,24.00
2018-04-18T11:31:34.457Z,23.86
2018-04-18T11:34:00.356Z,23.18
2018-04-18T11:36:25.896Z,24.01
2018-04-18T11:38:51.645Z,24.45
2018-04-18T11:41:17.189Z,24.14
2018-04-18T11:43:42.964Z,24.09
2018-04-18T11:46:08.515Z,23.67
2018-04-18T11:48:34.253Z,24.32
2018-04-18T11:50:59.806Z,24.29
2018-04-18T11:53:25.603Z,24.30
2018-04-18T11:55:51.171Z,23.90
2018-04-18T11:58:16.985Z,23.57
2018-04-18T12:00:42.526Z,23.78
2018-04-18T12:03:08.315Z,23.91
2018-04-18T12:05:33.884Z,23.15
2018-04-18T12:07:59.665Z,22.77
2018-04-18T12:10:25.211Z,23.13
2018-04-18T12:12:50.771Z,23.29
2018-04-18T12:15:16.592Z,23.22
2018-04-18T12:17:42.124Z,24.15
2018-04-18T12:20:07.911Z,24.24
2018-04-18T12:22:33.488Z,24.87
2018-04-18T12:24:59.252Z,24.92
2018-04-18T12:27:24.822Z,25.31
2018-04-18T12:29:50.685Z,25.46
2018-04-18T12:32:16.591Z,25.37
2018-04-18T12:34:42.309Z,25.43
2018-04-18T12:37:07.850Z,25.46
2018-04-18T12:39:33.636Z,25.20
2018-04-18T12:41:59.185Z,24.98
2018-04-18T12:44:24.880Z,25.18
2018-04-18T12:46:50.514Z,25.04
2018-04-18T12:49:17.202Z,25.15
2018-04-18T12:51:42.764Z,24.59
2018-04-18T12:54:08.515Z,24.41
2018-04-18T12:56:34.056Z,24.25
2018-04-18T12:58:59.859Z,24.37
2018-04-18T13:01:25.412Z,24.15
2018-04-18T13:03:51.136Z,25.08
2018-04-18T13:06:16.682Z,24.94
2018-04-18T13:08:42.355Z,24.38
2018-04-18T13:11:07.945Z,23.79
2018-04-18T13:13:33.493Z,23.89
2018-04-18T13:15:59.243Z,24.02
2018-04-18T13:18:24.789Z,24.67
2018-04-18T13:20:50.613Z,24.28
2018-04-18T13:23:16.160Z,24.75
2018-04-18T13:25:41.854Z,24.13
2018-04-18T13:28:07.477Z,24.83
2018-04-18T13:30:33.202Z,23.09
2018-04-18T13:32:58.777Z,23.24
2018-04-18T13:35:24.565Z,22.99
2018-04-18T13:37:50.201Z,23.28
2018-04-18T13:40:15.858Z,23.77
2018-04-18T13:42:41.400Z,24.15
2018-04-18T13:45:07.103Z,22.66
2018-04-18T13:47:32.711Z,22.72
2018-04-18T13:49:58.409Z,22.55
2018-04-18T13:52:23.944Z,22.38
2018-04-18T13:54:49.787Z,22.53
2018-04-18T13:57:15.278Z,23.24
2018-04-18T13:59:40.821Z,22.80
2018-04-18T14:02:06.640Z,23.15
2018-04-18T14:04:32.275Z,23.07
2018-04-18T14:06:57.837Z,22.59
2018-04-18T14:09:23.399Z,22.68
2018-04-18T14:11:49.109Z,23.10
2018-04-18T14:14:14.885Z,23.33
2018-04-18T14:16:40.433Z,22.89
2018-04-18T14:19:06.065Z,22.05
2018-04-18T14:21:31.768Z,23.01
2018-04-18T14:23:57.499Z,23.09
2018-04-18T14:26:23.073Z,22.69
2018-04-18T14:28:48.640Z,22.69
2018-04-18T14:31:14.327Z,21.96
2018-04-18T14:33:39.887Z,21.80
2018-04-18T14:36:05.635Z,22.39
2018-04-18T14:38:31.236Z,22.16
2018-04-18T14:40:56.988Z,21.78
2018-04-18T14:43:22.535Z,21.39
2018-04-18T14:45:48.392Z,22.03
2018-04-18T14:48:13.884Z,21.96
2018-04-18T14:50:39.453Z,21.01
2018-04-18T14:53:05.220Z,21.19
2018-04-18T14:55:30.876Z,21.02
2018-04-18T14:57:56.620Z,20.44
2018-04-18T15:00:22.173Z,20.54
2018-04-18T15:02:48.033Z,20.58
2018-04-18T15:05:13.646Z,19.96
2018-04-18T15:07:39.291Z,19.83
2018-04-18T15:10:04.844Z,19.87
2018-04-18T15:12:30.390Z,19.76
2018-04-18T15:14:56.157Z,19.52
2018-04-18T15:17:21.768Z,19.12
2018-04-18T15:19:47.583Z,19.30
2018-04-18T15:22:13.140Z,18.99
2018-04-18T15:24:39.046Z,19.10
2018-04-18T15:27:04.616Z,18.78
2018-04-18T15:29:30.325Z,18.23
2018-04-18T15:31:55.920Z,17.55
2018-04-18T15:34:21.669Z,17.27
2018-04-18T15:36:47.225Z,18.00
2018-04-18T15:39:12.927Z,18.04
2018-04-18T15:41:38.469Z,18.75
2018-04-18T15:44:04.388Z,19.03
2018-04-18T15:46:29.924Z,19.51
2018-04-18T15:48:55.645Z,19.71
2018-04-18T15:51:21.212Z,20.36
2018-04-18T15:53:46.909Z,20.44
2018-04-18T15:56:12.466Z,20.00
2018-04-18T15:58:38.266Z,20.43
2018-04-18T16:01:03.810Z,20.82
2018-04-18T16:03:29.647Z,20.66
2018-04-18T16:05:55.252Z,20.43
2018-04-18T16:08:21.062Z,20.64
2018-04-18T16:10:46.608Z,21.42
2018-04-18T16:13:12.405Z,21.54
2018-04-18T16:15:37.976Z,20.98
2018-04-18T16:18:03.743Z,21.05
2018-04-18T16:20:29.351Z,21.26
2018-04-18T16:22:54.900Z,21.63
2018-04-18T16:25:20.642Z,21.50
2018-04-18T16:27:46.185Z,22.12
2018-04-18T16:30:40.255Z,22.27
2018-04-18T16:33:05.952Z,22.03
2018-04-18T16:35:31.514Z,22.04
2018-04-18T16:37:57.065Z,21.94
2018-04-18T16:40:22.857Z,22.28
2018-04-18T16:42:48.409Z,22.12
2018-04-18T16:45:14.095Z,22.40
2018-04-18T16:47:39.733Z,22.47
2018-04-18T16:50:05.476Z,22.55
2018-04-18T16:52:31.029Z,22.72
2018-04-18T16:54:56.931Z,22.92
2018-04-18T16:57:22.478Z,22.59
2018-04-18T16:59:48.230Z,23.31
2018-04-18T17:02:13.785Z,23.04
2018-04-18T17:04:39.532Z,23.05
2018-04-18T17:07:05.066Z,23.75
2018-04-18T17:09:30.779Z,23.64
2018-04-18T17:11:56.550Z,23.77
2018-04-18T17:14:22.281Z,23.78
2018-04-18T17:16:47.880Z,24.01
2018-04-18T17:19:13.583Z,24.34
2018-04-18T17:21:39.128Z,24.16
2018-04-18T17:24:04.856Z,24.18
2018-04-18T17:26:30.407Z,24.04
2018-04-18T17:28:56.203Z,23.96
2018-04-18T17:31:21.869Z,24.21
2018-04-18T17:33:47.717Z,24.21
2018-04-18T17:36:13.249Z,24.57
2018-04-18T17:38:38.803Z,24.53
2018-04-18T17:41:04.521Z,24.71
2018-04-18T17:43:30.085Z,24.63
2018-04-18T17:45:55.750Z,24.86
2018-04-18T17:48:21.308Z,25.18
2018-04-18T17:50:47.048Z,24.42
2018-04-18T17:53:12.661Z,25.22
2018-04-18T17:55:38.350Z,25.76
2018-04-18T17:58:03.926Z,25.44
2018-04-18T18:00:29.655Z,25.55
2018-04-18T18:02:55.215Z,25.75
2018-04-18T18:05:21.624Z,26.16
2018-04-18T18:07:47.177Z,26.20
2018-04-18T18:10:12.871Z,25.73
2018-04-18T18:12:38.505Z,26.32
2018-04-18T18:15:04.498Z,26.25
2018-04-18T18:17:30.096Z,26.08
2018-04-18T18:19:55.791Z,27.05
2018-04-18T18:22:21.327Z,26.74
2018-04-18T18:24:47.097Z,26.94
2018-04-18T18:27:12.655Z,27.20
2018-04-18T18:29:38.319Z,27.44
2018-04-18T18:32:03.864Z,27.86
2018-04-18T18:34:29.419Z,27.88
2018-04-18T18:36:55.938Z,27.91
2018-04-18T18:39:21.526Z,27.84
2018-04-18T18:41:48.811Z,28.13
2018-04-18T18:44:14.451Z,28.19
2018-04-18T18:46:40.347Z,28.44
2018-04-18T18:49:05.888Z,28.85
2018-04-18T18:51:31.588Z,28.61
2018-04-18T18:53:57.134Z,28.71
2018-04-18T18:56:22.837Z,28.32
2018-04-18T18:58:48.403Z,28.17
2018-04-18T19:01:14.196Z,28.84
2018-04-18T19:03:39.739Z,28.55
2018-04-18T19:06:05.509Z,29.08
2018-04-18T19:08:31.052Z,28.61
2018-04-18T19:10:56.745Z,28.66
2018-04-18T19:13:22.289Z,28.99
2018-04-18T19:15:48.049Z,29.33
2018-04-18T19:18:13.622Z,29.01
2018-04-18T19:20:39.289Z,29.10
2018-04-18T19:23:04.851Z,29.29
2018-04-18T19:25:30.667Z,29.36
2018-04-18T19:27:56.218Z,29.73
2018-04-18T19:30:21.815Z,29.76
2018-04-18T19:32:47.537Z,29.18
2018-04-18T19:35:13.103Z,29.82
2018-04-18T19:37:38.884Z,30.02
2018-04-18T19:40:04.446Z,29.10
2018-04-18T19:42:30.271Z,29.58
2018-04-18T19:44:55.792Z,29.95
2018-04-18T19:47:21.509Z,30.27
2018-04-18T19:49:47.158Z,30.16
2018-04-18T19:52:13.040Z,29.22
2018-04-18T19:54:38.582Z,30.03
2018-04-18T19:57:04.305Z,30.38
2018-04-18T19:59:29.872Z,30.88
2018-04-18T20:01:55.626Z,31.00
2018-04-18T20:04:21.176Z,30.89
2018-04-18T20:06:47.543Z,31.37
2018-04-18T20:09:13.148Z,31.16
2018-04-18T20:11:38.909Z,31.56
2018-04-18T20:14:04.472Z,30.60
2018-04-18T20:16:30.179Z,31.28
2018-04-18T20:18:55.751Z,31.85
2018-04-18T20:21:21.286Z,31.89
2018-04-18T20:23:47.325Z,31.63
2018-04-18T20:26:12.870Z,31.63
2018-04-18T20:28:38.570Z,31.91
2018-04-18T20:31:04.191Z,31.96
2018-04-18T20:33:30.074Z,31.97
2018-04-18T20:35:55.593Z,31.92
2018-04-18T20:38:21.631Z,31.98
2018-04-18T20:40:47.260Z,32.30
2018-04-18T20:43:13.035Z,32.51
2018-04-18T20:45:38.673Z,32.74
2018-04-18T20:48:04.488Z,33.08
2018-04-18T20:50:30.051Z,32.87
2018-04-18T20:52:55.748Z,32.69
2018-04-18T20:55:21.288Z,32.66
2018-04-18T20:57:47.348Z,33.60
2018-04-18T21:00:13.303Z,33.15
2018-04-18T21:02:39.063Z,33.00
2018-04-18T21:05:04.617Z,33.32
2018-04-18T21:07:30.191Z,33.04
2018-04-18T21:09:55.950Z,33.15
2018-04-18T21:12:21.511Z,32.17
2018-04-18T21:14:47.630Z,33.05
2018-04-18T21:17:13.392Z,33.43
2018-04-18T21:19:38.935Z,33.09
2018-04-18T21:24:37.081Z,33.56
2018-04-18T21:27:02.796Z,33.10
2018-04-18T21:29:28.377Z,32.75
2018-04-18T21:31:53.949Z,34.12
2018-04-18T21:34:19.688Z,34.76
2018-04-18T21:36:45.241Z,35.27
2018-04-18T21:39:11.270Z,35.28
2018-04-18T21:41:36.833Z,35.17
2018-04-18T21:44:02.599Z,35.48
2018-04-18T21:46:28.156Z,35.43
2018-04-18T21:48:53.917Z,35.39
2018-04-18T21:51:19.456Z,35.90
2018-04-18T21:53:45.225Z,36.27
2018-04-18T21:56:10.769Z,35.71
2018-04-18T21:58:36.608Z,35.86
2018-04-18T22:01:02.136Z,35.72
2018-04-18T22:03:28.199Z,35.99
2018-04-18T22:05:54.205Z,36.72
2018-04-18T22:08:20.018Z,36.60
2018-04-18T22:10:45.583Z,36.48
2018-04-18T22:13:11.334Z,36.54
2018-04-18T22:15:36.894Z,36.83
2018-04-18T22:18:02.669Z,36.50
2018-04-18T22:20:28.224Z,36.25
2018-04-18T22:22:53.945Z,36.13
2018-04-18T22:25:19.518Z,36.35
2018-04-18T22:27:45.072Z,36.01
2018-04-18T22:30:10.821Z,36.14
2018-04-18T22:32:36.363Z,36.20
2018-04-18T22:35:02.073Z,36.37
2018-04-18T22:37:27.795Z,36.36
2018-04-18T22:39:53.358Z,37.50
2018-04-18T22:42:19.190Z,39.22
2018-04-18T22:44:44.795Z,39.77
2018-04-18T22:47:10.608Z,40.15
2018-04-18T22:49:36.128Z,40.25
2018-04-18T22:52:02.065Z,41.12
2018-04-18T22:54:27.622Z,41.47
2018-04-18T22:56:53.328Z,41.54
